Time;durP1;ratioP1;P1;durP2;ratioP2;P2;SDS_P1;SDS_P2;PMS_P1;PMS_P2;Temp;Humidity;BMP_temperature;BMP_pressure;BME280_temperature;BME280_humidity;BME280_pressure;Samples;Min_cycle;Max_cycle;Signal;HPM_P1;HPM_P2
2022/04/26 03:36:44;;;;;;;5.63;2.03;;;;;;;11.34;100.00;62012.28;5114346;28;20202;-73
2022/04/26 03:39:10;;;;;;;10.83;2.47;;;;;;;11.31;100.00;62014.19;5114277;28;20195;-73
2022/04/26 03:41:37;;;;;;;6.97;2.20;;;;;;;11.24;100.00;62001.56;5114060;28;20248;-71
2022/04/26 03:44:04;;;;;;;6.20;2.30;;;;;;;10.78;100.00;61953.34;5113795;28;20199;-72
2022/04/26 03:46:32;;;;;;;8.53;2.53;;;;;;;11.25;100.00;62005.19;5113942;28;20238;-72
2022/04/26 03:49:00;;;;;;;3.27;1.90;;;;;;;11.32;100.00;62010.16;5113862;28;20276;-73
2022/04/26 03:51:27;;;;;;;6.03;2.30;;;;;;;11.02;100.00;61978.53;5113775;28;20195;-72
2022/04/26 03:53:54;;;;;;;6.00;1.93;;;;;;;11.35;100.00;62013.38;5113762;28;20195;-73
2022/04/26 03:56:22;;;;;;;4.53;2.10;;;;;;;11.35;100.00;62013.38;5113882;28;20199;-73
2022/04/26 03:58:48;;;;;;;6.57;2.10;;;;;;;11.33;100.00;62013.78;5113609;28;20191;-72
2022/04/26 04:01:15;;;;;;;8.77;2.37;;;;;;;11.48;100.00;62027.28;5113585;28;20203;-72
2022/04/26 04:03:42;;;;;;;6.47;2.13;;;;;;;11.17;100.00;61996.63;5113503;28;20369;-71
2022/04/26 04:06:10;;;;;;;4.77;2.40;;;;;;;11.59;100.00;62041.66;5113443;28;20199;-73
2022/04/26 04:08:37;;;;;;;8.87;2.53;;;;;;;11.55;100.00;62037.38;5113692;28;20203;-73
2022/04/26 04:11:03;;;;;;;5.30;2.33;;;;;;;11.50;100.00;62037.09;5113654;28;20271;-72
2022/04/26 04:13:30;;;;;;;11.23;2.43;;;;;;;11.92;100.00;62071.97;5113060;28;20252;-72
2022/04/26 04:15:57;;;;;;;9.20;3.27;;;;;;;12.41;100.00;62126.56;5113206;28;20244;-73
2022/04/26 04:21:11;;;;;;;12.00;2.80;;;;;;;12.85;100.00;62176.34;5113322;28;20606;-72
2022/04/26 04:23:40;;;;;;;6.97;2.00;;;;;;;12.84;100.00;62172.19;5113072;28;20223;-71
2022/04/26 04:26:07;;;;;;;18.20;3.27;;;;;;;13.05;100.00;62195.28;5112916;28;20194;-71
2022/04/26 04:28:35;;;;;;;14.47;3.10;;;;;;;13.25;100.00;62221.34;5113629;28;20249;-72
2022/04/26 04:31:02;;;;;;;10.17;2.27;;;;;;;13.20;100.00;62216.50;5112884;28;20223;-71
2022/04/26 04:33:29;;;;;;;9.13;2.20;;;;;;;12.61;100.00;62148.56;5112670;28;20191;-72
2022/04/26 04:35:56;;;;;;;12.60;3.23;;;;;;;13.26;100.00;62217.31;5112895;28;20199;-72
2022/04/26 04:38:26;;;;;;;26.00;3.90;;;;;;;13.31;100.00;62225.22;5112678;28;20248;-72
2022/04/26 04:40:53;;;;;;;8.73;2.50;;;;;;;13.43;100.00;62233.00;5113135;28;20275;-73
2022/04/26 04:43:21;;;;;;;7.70;2.23;;;;;;;13.49;100.00;62242.53;5112510;28;20296;-72
2022/04/26 04:45:48;;;;;;;7.27;2.53;;;;;;;13.61;100.00;62254.91;5113063;28;20191;-72
2022/04/26 04:48:15;;;;;;;21.33;3.37;;;;;;;13.65;100.00;62264.31;5113015;28;20223;-73
2022/04/26 04:50:42;;;;;;;19.80;3.10;;;;;;;13.98;100.00;62299.78;5112943;28;20203;-71
2022/04/26 04:53:09;;;;;;;14.23;2.73;;;;;;;13.54;100.00;62244.81;5112524;28;20571;-72
2022/04/26 04:55:40;;;;;;;18.97;3.30;;;;;;;13.60;100.00;62248.72;5113042;28;20206;-73
2022/04/26 04:58:07;;;;;;;15.73;3.53;;;;;;;14.20;100.00;62320.34;5111355;28;20206;-72
2022/04/26 05:00:34;;;;;;;16.70;2.90;;;;;;;14.45;100.00;62349.28;5112481;28;20203;-72
2022/04/26 05:03:01;;;;;;;17.90;3.60;;;;;;;14.31;100.00;62327.59;5112348;28;20697;-71
2022/04/26 05:05:28;;;;;;;9.27;2.60;;;;;;;14.64;100.00;62365.13;5112263;28;20195;-73
2022/04/26 05:07:56;;;;;;;12.83;3.10;;;;;;;14.74;100.00;62372.75;5111119;28;20209;-72
2022/04/26 05:10:24;;;;;;;12.13;3.57;;;;;;;15.02;100.00;62402.88;5112225;28;20202;-72
2022/04/26 05:12:52;;;;;;;12.60;3.20;;;;;;;15.27;100.00;62435.44;5112102;28;20202;-72
2022/04/26 05:15:19;;;;;;;13.50;3.53;;;;;;;15.23;100.00;62433.19;5112139;28;20621;-72
2022/04/26 05:17:46;;;;;;;15.83;3.90;;;;;;;15.57;100.00;62464.69;5112191;28;20629;-71
2022/04/26 05:20:13;;;;;;;6.63;3.17;;;;;;;15.83;100.00;62492.13;5112006;28;20214;-72
2022/04/26 05:25:22;;;;;;;7.90;3.47;;;;;;;16.06;100.00;62516.88;5077159;28;20195;-71
2022/04/26 05:27:49;;;;;;;27.27;4.27;;;;;;;16.29;100.00;62546.81;5112037;28;20665;-73
2022/04/26 05:30:17;;;;;;;15.67;4.40;;;;;;;16.49;100.00;62560.13;5111999;28;20198;-72
2022/04/26 05:32:44;;;;;;;18.50;3.57;;;;;;;16.63;100.00;62575.75;5112240;28;20226;-72
2022/04/26 05:35:11;;;;;;;14.90;4.03;;;;;;;16.91;100.00;62607.94;5111918;28;20650;-72
2022/04/26 05:37:38;;;;;;;18.00;3.47;;;;;;;16.89;100.00;62610.94;5112152;28;20198;-73
2022/04/26 05:40:06;;;;;;;48.50;5.83;;;;;;;17.59;100.00;62681.28;5111830;28;20263;-73
2022/04/26 05:42:38;;;;;;;11.77;3.20;;;;;;;17.81;100.00;62701.91;5112102;28;20264;-71
2022/04/26 05:45:05;;;;;;;11.60;3.50;;;;;;;17.83;100.00;62706.66;5111797;28;20634;-72
2022/04/26 05:47:34;;;;;;;13.10;4.07;;;;;;;18.17;100.00;62742.81;5112316;28;20195;-71
2022/04/26 05:50:02;;;;;;;9.80;3.50;;;;;;;18.18;100.00;62743.88;5111705;28;20195;-72
2022/04/26 05:52:29;;;;;;;15.77;4.20;;;;;;;18.23;100.00;62749.28;5112215;28;20267;-72
2022/04/26 05:54:56;;;;;;;23.60;5.83;;;;;;;18.21;100.00;62749.69;5111748;28;20267;-71
2022/04/26 05:57:23;;;;;;;35.47;7.00;;;;;;;18.52;100.00;62778.00;5111656;28;20199;-72
2022/04/26 05:59:50;;;;;;;23.97;6.10;;;;;;;18.38;100.00;62765.47;5111622;28;20210;-72
2022/04/26 06:02:17;;;;;;;24.53;5.67;;;;;;;18.69;100.00;62801.53;5111289;28;20686;-72
2022/04/26 06:04:46;;;;;;;20.20;5.37;;;;;;;18.75;100.00;62804.88;5111344;28;20210;-72
2022/04/26 06:07:13;;;;;;;26.30;5.87;;;;;;;18.67;100.00;62796.78;5111757;28;20202;-72
2022/04/26 06:09:40;;;;;;;14.77;4.97;;;;;;;18.66;100.00;62795.72;5111630;28;20195;-73
2022/04/26 06:12:08;;;;;;;20.20;6.07;;;;;;;18.82;100.00;62812.97;5110538;28;20217;-71
2022/04/26 06:14:35;;;;;;;15.27;5.67;;;;;;;18.96;100.00;62827.56;5111949;28;20195;-74
2022/04/26 06:17:02;;;;;;;19.23;6.33;;;;;;;19.20;100.00;62853.47;5110466;28;20199;-72
2022/04/26 06:19:29;;;;;;;16.03;6.57;;;;;;;19.07;100.00;62839.44;5111907;28;20199;-72
2022/04/26 06:21:57;;;;;;;20.10;6.67;;;;;;;19.10;100.00;62843.22;5111496;28;20215;-73
2022/04/26 06:24:25;;;;;;;15.30;5.97;;;;;;;18.43;100.00;62770.88;5111406;28;20394;-71
2022/04/26 06:26:52;;;;;;;17.57;5.83;;;;;;;18.53;100.00;62781.69;5111455;28;20235;-73
2022/04/26 06:29:19;;;;;;;20.33;5.83;;;;;;;19.08;100.00;62841.06;5111451;28;20264;-72
2022/04/26 06:31:46;;;;;;;18.43;4.70;;;;;;;19.29;100.00;62863.75;5111359;28;20717;-71
2022/04/26 06:34:13;;;;;;;16.10;5.37;;;;;;;19.51;100.00;62887.00;5111937;28;20205;-72
2022/04/26 06:36:40;;;;;;;22.13;4.80;;;;;;;19.74;100.00;62911.31;5114206;28;20220;-71
2022/04/26 06:39:09;;;;;;;9.20;4.23;;;;;;;19.85;100.00;62923.19;5115481;28;20277;-72
2022/04/26 06:41:36;;;;;;;11.30;4.73;;;;;;;19.85;100.00;62918.03;5115219;28;20620;-72
2022/04/26 06:44:03;;;;;;;10.63;3.87;;;;;;;19.91;100.00;62929.69;5115016;28;20232;-72
2022/04/26 06:46:30;;;;;;;12.17;3.40;;;;;;;19.32;100.00;62867.00;5115283;28;20195;-71
2022/04/26 06:48:58;;;;;;;13.73;3.43;;;;;;;19.14;100.00;62847.53;5114059;28;20590;-73
2022/04/26 06:51:26;;;;;;;8.60;2.50;;;;;;;19.31;100.00;62865.91;5115099;28;20334;-72
2022/04/26 06:53:54;;;;;;;10.07;3.10;;;;;;;19.97;100.00;62936.16;5115020;28;20198;-72
2022/04/26 06:56:22;;;;;;;8.83;2.60;;;;;;;20.25;100.00;62966.47;5115415;28;20303;-72
2022/04/26 06:58:49;;;;;;;6.43;2.60;;;;;;;20.42;100.00;62984.84;5114916;28;20248;-72
2022/04/26 07:01:15;;;;;;;10.67;2.83;;;;;;;20.44;100.00;62984.44;5114901;28;20556;-72
2022/04/26 07:03:42;;;;;;;8.60;3.30;;;;;;;20.53;100.00;62999.34;5114889;28;20231;-72
2022/04/26 07:06:09;;;;;;;5.97;2.47;;;;;;;20.67;100.00;63006.72;5114720;28;20195;-71
2022/04/26 07:08:36;;;;;;;10.77;2.40;;;;;;;20.61;100.00;63000.22;5114734;28;20198;-72
2022/04/26 07:11:02;;;;;;;6.93;2.27;;;;;;;20.96;100.00;63045.84;5114614;28;20198;-72
2022/04/26 07:13:32;;;;;;;7.93;2.60;;;;;;;21.14;99.05;63062.22;5115198;28;20199;-73
2022/04/26 07:15:59;;;;;;;6.97;2.50;;;;;;;21.45;99.85;63095.75;5114639;28;20199;-73
2022/04/26 07:18:26;;;;;;;8.53;2.50;;;;;;;21.67;100.00;63119.06;5114653;28;20203;-72
2022/04/26 07:20:54;;;;;;;10.77;2.97;;;;;;;21.47;96.70;63097.41;5114388;28;20218;-71
2022/04/26 07:23:21;;;;;;;18.27;2.67;;;;;;;21.89;95.99;63142.91;5114351;28;20726;-72
2022/04/26 07:25:48;;;;;;;27.57;3.93;;;;;;;22.09;94.14;63164.00;5114689;28;20191;-72
2022/04/26 07:28:15;;;;;;;14.07;3.70;;;;;;;22.23;93.99;63179.16;5114524;28;20259;-72
2022/04/26 07:30:44;;;;;;;13.93;5.57;;;;;;;22.45;91.19;63203.00;5114332;28;20195;-72
2022/04/26 07:35:55;;;;;;;5.27;2.07;;;;;;;22.33;81.65;63193.13;5114436;28;20201;-73
2022/04/26 07:38:22;;;;;;;8.10;2.10;;;;;;;22.15;84.11;63171.06;5114174;28;20203;-73
2022/04/26 07:40:48;;;;;;;8.03;2.17;;;;;;;22.55;82.63;63213.84;5114374;28;20263;-72
2022/04/26 07:43:15;;;;;;;6.67;1.93;;;;;;;22.60;85.55;63219.81;5113867;28;20738;-73
2022/04/26 07:45:45;;;;;;;9.03;2.47;;;;;;;22.38;82.89;63190.75;5114117;28;20199;-73
2022/04/26 07:48:14;;;;;;;8.10;2.20;;;;;;;22.94;79.53;63255.59;5113100;28;20292;-72
2022/04/26 07:50:42;;;;;;;7.20;2.17;;;;;;;23.48;76.48;63319.34;5114239;28;20587;-73
2022/04/26 07:53:08;;;;;;;7.00;2.30;;;;;;;23.53;75.22;63314.34;5113764;28;20195;-71
2022/04/26 07:55:37;;;;;;;3.60;2.03;;;;;;;23.60;72.49;63332.38;5113834;28;20195;-73
2022/04/26 07:58:05;;;;;;;12.23;2.00;;;;;;;23.17;72.00;63280.50;5113872;28;20195;-71
2022/04/26 08:00:33;;;;;;;4.63;2.33;;;;;;;22.52;73.53;63205.94;5113629;28;20194;-73
2022/04/26 08:03:02;;;;;;;10.00;1.93;;;;;;;22.40;78.04;63195.53;5113597;27;20574;-72
2022/04/26 08:05:31;;;;;;;6.03;1.90;;;;;;;22.55;83.52;63213.84;5113441;28;20247;-72
2022/04/26 08:07:59;;;;;;;12.70;2.17;;;;;;;22.79;81.99;63239.88;5113520;28;20206;-72
2022/04/26 08:10:27;;;;;;;10.87;2.30;;;;;;;22.87;78.99;63250.59;5113749;28;20194;-72
2022/04/26 08:12:53;;;;;;;9.17;2.23;;;;;;;23.24;75.40;63288.09;5113376;28;20191;-71
2022/04/26 08:15:21;;;;;;;9.37;2.30;;;;;;;23.27;81.24;63291.91;5113280;28;20195;-73
2022/04/26 08:17:49;;;;;;;10.10;2.50;;;;;;;23.62;77.79;63329.34;5113410;28;20203;-72
2022/04/26 08:20:17;;;;;;;10.33;2.27;;;;;;;23.87;76.87;63355.88;5113295;28;20610;-71
2022/04/26 08:22:46;;;;;;;11.27;2.63;;;;;;;23.42;79.97;63302.44;5113346;28;20737;-71
2022/04/26 08:27:56;;;;;;;13.23;3.10;;;;;;;22.81;77.94;63238.88;5113339;28;20206;-73
2022/04/26 08:30:23;;;;;;;9.43;2.57;;;;;;;23.04;81.83;63263.81;5113240;28;20200;-73
2022/04/26 08:32:51;;;;;;;13.43;2.93;;;;;;;22.96;81.04;63257.75;5113117;28;20223;-72
2022/04/26 08:35:22;;;;;;;7.00;2.50;;;;;;;23.39;85.61;63309.56;5112903;28;20600;-73
2022/04/26 08:37:49;;;;;;;6.87;2.53;;;;;;;23.77;79.57;63345.59;5111780;28;20234;-72
2022/04/26 08:40:16;;;;;;;16.80;3.10;;;;;;;24.04;81.74;63374.91;5112789;28;20248;-72
2022/04/26 08:42:45;;;;;;;12.33;3.50;;;;;;;23.71;83.38;63333.88;5112461;28;20575;-72
2022/04/26 08:45:14;;;;;;;14.90;2.43;;;;;;;23.85;79.66;63354.25;5112642;28;20326;-71
2022/04/26 08:53:16;;;;;;;15.27;2.73;;;;;;;23.12;88.80;63273.03;5112667;28;20205;-72
2022/04/26 08:55:44;;;;;;;11.83;2.93;;;;;;;23.39;89.90;63302.31;5112475;28;20669;-72
2022/04/26 08:58:12;;;;;;;13.63;3.63;;;;;;;23.76;85.89;63341.38;5112540;28;20199;-72
2022/04/26 09:00:41;;;;;;;7.43;2.60;;;;;;;23.70;87.19;63338.00;5111770;28;20211;-73
2022/04/26 09:03:08;;;;;;;13.10;3.40;;;;;;;23.55;88.33;63326.94;5112361;28;20270;-72
2022/04/26 09:05:39;;;;;;;14.17;2.63;;;;;;;24.44;83.95;63417.22;5112402;28;20203;-72
2022/04/26 09:08:20;;;;;;;13.43;3.50;;;;;;;24.62;87.23;63431.53;5112058;28;20239;-72
2022/04/26 09:10:48;;;;;;;10.77;2.77;;;;;;;24.83;78.75;63454.38;5112206;28;20286;-71
2022/04/26 09:13:17;;;;;;;7.20;2.60;;;;;;;24.28;85.92;63398.34;5112092;28;20206;-72
2022/04/26 09:15:47;;;;;;;9.63;2.60;;;;;;;24.20;81.82;63392.28;5112250;28;20629;-72
2022/04/26 09:18:20;;;;;;;6.73;2.30;;;;;;;24.22;78.50;63394.44;5112395;28;20228;-72
2022/04/26 09:20:50;;;;;;;8.80;2.10;;;;;;;24.00;79.15;63370.53;5112895;28;20217;-72
2022/04/26 09:23:19;;;;;;;14.10;2.83;;;;;;;23.72;84.10;63340.19;5111970;28;20191;-72
2022/04/26 09:25:48;;;;;;;9.10;2.17;;;;;;;24.12;87.21;63386.19;5110789;28;20206;-72
2022/04/26 09:28:22;;;;;;;5.47;2.60;;;;;;;24.37;79.38;63407.03;5111719;28;20201;-73
2022/04/26 09:30:50;;;;;;;15.87;2.97;;;;;;;24.44;78.82;63412.00;5111765;28;20195;-73
2022/04/26 09:33:36;;;;;;;13.00;2.43;;;;;;;23.98;80.20;63368.38;5111898;28;20195;-72
2022/04/26 09:36:06;;;;;;;20.70;3.00;;;;;;;24.19;81.68;63391.19;5112163;28;20546;-72
2022/04/26 09:38:34;;;;;;;15.53;3.30;;;;;;;24.07;83.09;63377.59;5112545;28;20252;-73
2022/04/26 09:41:02;;;;;;;9.67;2.40;;;;;;;24.44;82.08;63412.00;5111989;28;20202;-73
2022/04/26 09:43:29;;;;;;;13.67;3.20;;;;;;;24.83;83.52;63456.97;5111734;28;20231;-73
2022/04/26 09:45:58;;;;;;;16.30;2.97;;;;;;;24.29;78.98;63398.88;5111855;28;20195;-72
2022/04/26 09:48:27;;;;;;;13.93;2.80;;;;;;;25.19;77.59;63498.13;5111953;28;20655;-72
2022/04/26 09:50:57;;;;;;;9.57;2.50;;;;;;;25.53;76.72;63535.06;5111676;28;20657;-73
2022/04/26 09:53:26;;;;;;;6.53;2.30;;;;;;;25.76;73.15;63555.38;5112131;28;20237;-74
2022/04/26 09:55:55;;;;;;;13.30;2.80;;;;;;;25.50;69.43;63529.75;5111671;28;20703;-72
2022/04/26 09:58:23;;;;;;;14.37;2.60;;;;;;;25.68;67.58;63546.69;5111927;28;20652;-71
2022/04/26 10:00:52;;;;;;;11.10;3.20;;;;;;;25.94;67.87;63577.56;5111765;28;20681;-72
2022/04/26 10:03:22;;;;;;;10.00;2.53;;;;;;;25.93;67.20;63579.09;5111648;28;20207;-73
2022/04/26 10:05:50;;;;;;;10.23;2.90;;;;;;;25.96;68.17;63582.34;5111856;28;20199;-73
2022/04/26 10:08:19;;;;;;;12.50;2.80;;;;;;;26.37;67.75;63628.44;5111859;28;20256;-73
2022/04/26 10:10:47;;;;;;;14.67;2.67;;;;;;;26.26;64.10;63617.03;5112923;28;20209;-74
2022/04/26 10:16:05;;;;;;;10.13;2.67;;;;;;;25.83;57.59;63568.22;5115810;28;20201;-73
2022/04/26 10:18:38;;;;;;;9.63;2.90;;;;;;;26.34;58.95;63623.09;5116139;28;20657;-72
2022/04/26 10:21:06;;;;;;;10.93;3.00;;;;;;;26.15;61.10;63607.16;5115802;28;20219;-74
2022/04/26 10:24:09;;;;;;;7.90;2.77;;;;;;;25.76;59.05;63560.59;5115753;28;20684;-71
2022/04/26 10:26:37;;;;;;;12.13;2.40;;;;;;;25.95;58.98;63581.25;5101825;28;20198;-73
2022/04/26 10:29:13;;;;;;;12.87;2.93;;;;;;;26.67;60.98;63659.00;5115652;28;20199;-73
2022/04/26 10:31:42;;;;;;;11.40;2.47;;;;;;;26.56;55.55;63643.88;5115776;28;20230;-73
2022/04/26 10:34:25;;;;;;;6.67;2.10;;;;;;;25.64;58.98;63547.00;5115637;28;20256;-73
2022/04/26 10:36:53;;;;;;;10.57;2.77;;;;;;;26.25;54.96;63610.72;5115591;28;20609;-74
2022/04/26 10:39:31;;;;;;;8.60;2.70;;;;;;;26.58;53.36;63653.91;5115280;28;20195;-73
2022/04/26 10:42:01;;;;;;;6.80;2.53;;;;;;;27.46;50.11;63744.44;5115424;28;20194;-74
2022/04/26 10:44:40;;;;;;;10.47;2.37;;;;;;;27.49;52.14;63752.94;5115303;28;20299;-72
2022/04/26 10:47:27;;;;;;;11.20;2.53;;;;;;;27.90;49.36;63785.97;5115151;28;20665;-73
2022/04/26 10:49:55;;;;;;;10.10;2.67;;;;;;;27.20;51.33;63716.13;5115645;28;20195;-73
2022/04/26 10:52:37;;;;;;;6.50;2.20;;;;;;;27.55;51.01;63753.66;5114974;28;20281;-72
2022/04/26 10:55:07;;;;;;;39.50;4.67;;;;;;;27.12;52.30;63704.81;5115001;28;20199;-73
2022/04/26 10:57:37;;;;;;;6.57;2.30;;;;;;;26.52;51.32;63642.16;5115125;28;20191;-72
2022/04/26 11:00:07;;;;;;;10.00;2.00;;;;;;;26.37;47.91;63628.44;5115401;28;20199;-72
2022/04/26 11:02:36;;;;;;;11.10;2.30;;;;;;;25.83;49.30;63568.22;5115232;28;20225;-72
2022/04/26 11:05:08;;;;;;;15.33;2.60;;;;;;;25.79;45.86;63563.88;5114309;28;20321;-72
2022/04/26 11:07:36;;;;;;;7.87;2.37;;;;;;;25.52;45.03;63534.53;5115172;28;20201;-74
2022/04/26 11:10:04;;;;;;;8.10;2.60;;;;;;;25.17;48.09;63496.50;5114626;28;20226;-72
2022/04/26 11:12:33;;;;;;;15.33;2.33;;;;;;;24.69;49.47;63442.28;5114813;28;20224;-73
2022/04/26 11:15:04;;;;;;;11.17;2.40;;;;;;;24.60;52.59;63437.75;5114905;28;20228;-73
2022/04/26 11:17:33;;;;;;;9.77;1.93;;;;;;;24.63;54.22;63437.84;5114638;28;20191;-73
2022/04/26 11:20:02;;;;;;;10.57;2.57;;;;;;;24.38;55.45;63410.72;5114564;28;20195;-73
2022/04/26 11:22:30;;;;;;;10.47;2.00;;;;;;;23.76;57.24;63344.50;5113569;28;20191;-73
2022/04/26 11:28:03;;;;;;;8.43;2.00;;;;;;;24.15;59.43;63386.28;5114782;28;20208;-71
2022/04/26 11:30:36;;;;;;;7.73;2.40;;;;;;;24.06;59.24;63373.94;5114744;28;20193;-73
2022/04/26 11:33:06;;;;;;;7.13;2.27;;;;;;;24.02;58.14;63372.16;5073696;28;20255;-72
2022/04/26 11:35:34;;;;;;;10.90;2.83;;;;;;;23.60;59.90;63327.16;5073566;28;20204;-72
2022/04/26 11:38:09;;;;;;;13.93;2.53;;;;;;;23.28;60.65;63292.44;5073542;28;20198;-73
2022/04/26 11:40:41;;;;;;;8.47;2.30;;;;;;;22.99;64.85;63263.59;5073929;28;20227;-72
2022/04/26 11:43:10;;;;;;;10.23;2.30;;;;;;;23.13;62.60;63276.16;5073602;28;20228;-74
2022/04/26 11:45:40;;;;;;;15.23;2.63;;;;;;;23.05;60.49;63267.50;5073383;28;20238;-72
2022/04/26 11:48:12;;;;;;;13.47;2.20;;;;;;;22.70;59.19;63230.09;5072323;28;20203;-72
2022/04/26 11:50:39;;;;;;;9.73;1.87;;;;;;;22.83;61.63;63243.66;5073657;28;20199;-72
2022/04/26 11:53:08;;;;;;;7.17;2.00;;;;;;;22.40;55.07;63198.13;5073295;28;20258;-73
2022/04/26 11:55:36;;;;;;;4.57;1.70;;;;;;;22.58;54.25;63217.63;5073318;28;20200;-74
2022/04/26 11:58:15;;;;;;;4.70;1.40;;;;;;;21.83;56.07;63131.22;5073211;28;20204;-73
2022/04/26 12:01:07;;;;;;;5.17;1.60;;;;;;;21.89;54.29;63142.91;5073633;28;20200;-71
2022/04/26 12:03:38;;;;;;;8.97;1.70;;;;;;;22.15;53.26;63171.06;5073647;28;20200;-72
2022/04/26 12:06:06;;;;;;;5.10;1.77;;;;;;;22.20;54.58;63171.25;5073199;28;20228;-71
2022/04/26 12:08:37;;;;;;;9.13;1.73;;;;;;;22.80;54.28;63243.00;5072935;28;20192;-72
2022/04/26 12:11:15;;;;;;;9.90;2.20;;;;;;;22.71;52.69;63231.19;5072963;28;20230;-73
2022/04/26 12:13:44;;;;;;;3.37;1.77;;;;;;;23.60;52.22;63327.16;5072801;28;20192;-72
2022/04/26 12:16:21;;;;;;;6.53;2.00;;;;;;;23.91;46.97;63360.78;5072894;28;20273;-71
2022/04/26 12:18:50;;;;;;;6.80;1.77;;;;;;;24.48;46.21;63421.56;5072858;28;20197;-74
2022/04/26 12:21:17;;;;;;;6.67;1.97;;;;;;;24.95;46.74;63472.63;5072713;28;20225;-73
2022/04/26 12:23:44;;;;;;;6.17;1.93;;;;;;;25.27;44.08;63506.81;5072905;28;20204;-72
2022/04/26 12:26:11;;;;;;;5.60;1.90;;;;;;;25.44;44.44;63525.28;5072552;28;20234;-72
2022/04/26 12:28:47;;;;;;;5.97;1.70;;;;;;;25.32;43.89;63512.78;5072713;28;20647;-72
2022/04/26 12:31:25;;;;;;;12.17;2.10;;;;;;;24.57;49.18;63428.72;5083603;28;20593;-73
2022/04/26 12:34:12;;;;;;;26.77;3.30;;;;;;;24.35;53.18;63407.47;5112923;28;20199;-73
2022/04/26 12:36:58;;;;;;;9.20;2.20;;;;;;;23.26;62.88;63290.28;5113373;28;20588;-72
2022/04/26 12:39:27;;;;;;;12.07;2.20;;;;;;;22.92;81.02;63253.94;5113005;28;20290;-73
2022/04/26 12:41:58;;;;;;;18.60;3.47;;;;;;;22.57;88.86;63216.56;5111880;28;20195;-72
2022/04/26 12:44:25;;;;;;;17.17;4.80;;;;;;;21.93;92.13;63142.03;5112773;28;20191;-73
2022/04/26 12:52:46;;;;;;;7.57;2.67;;;;;;;21.95;85.61;63151.97;5112852;28;20205;-72
2022/04/26 12:55:14;;;;;;;5.70;2.57;;;;;;;21.83;92.94;63136.91;5112866;28;20195;-72
2022/04/26 12:57:52;;;;;;;5.23;1.87;;;;;;;21.84;92.40;63142.66;5111410;28;20207;-73
2022/04/26 13:00:20;;;;;;;13.90;2.57;;;;;;;21.90;93.23;63146.56;5112510;28;20191;-73
2022/04/26 13:02:50;;;;;;;4.53;1.90;;;;;;;22.17;93.49;63173.22;5112549;28;20195;-72
2022/04/26 13:05:17;;;;;;;12.43;1.87;;;;;;;22.48;94.79;63209.38;5112415;28;20234;-72
2022/04/26 13:07:45;;;;;;;7.90;2.10;;;;;;;22.88;100.00;63249.09;5112597;28;20195;-73
2022/04/26 13:10:14;;;;;;;13.93;2.07;;;;;;;22.95;99.36;63256.66;5112187;28;20230;-73
2022/04/26 13:12:41;;;;;;;4.43;1.80;;;;;;;23.12;94.34;63277.69;5112240;28;20588;-73
2022/04/26 13:15:09;;;;;;;5.20;1.73;;;;;;;23.27;88.03;63291.34;5112016;28;20203;-71
2022/04/26 13:17:36;;;;;;;12.27;1.80;;;;;;;23.26;90.49;63290.78;5112111;28;20289;-72
2022/04/26 13:20:05;;;;;;;10.67;1.77;;;;;;;22.80;83.79;63243.00;5112196;28;20213;-72
2022/04/26 13:22:34;;;;;;;3.17;1.43;;;;;;;22.71;85.56;63231.19;5112180;28;20198;-72
2022/04/26 13:25:01;;;;;;;7.93;1.80;;;;;;;22.84;97.25;63242.66;5112164;28;20222;-72
2022/04/26 13:27:37;;;;;;;21.17;2.37;;;;;;;22.82;100.00;63248.31;5112146;28;20290;-71
2022/04/26 13:30:05;;;;;;;12.57;2.23;;;;;;;22.41;100.00;63196.63;5112482;28;20206;-74
2022/04/26 13:32:32;;;;;;;12.57;1.97;;;;;;;22.59;100.00;63221.34;5112257;28;20226;-75
2022/04/26 13:34:59;;;;;;;7.40;1.97;;;;;;;22.74;100.00;63234.44;5112007;28;20195;-73
2022/04/26 13:37:28;;;;;;;10.70;1.80;;;;;;;22.45;100.00;63197.81;5111745;28;20199;-73
2022/04/26 13:39:58;;;;;;;7.77;1.57;;;;;;;22.20;100.00;63179.06;5112141;28;20230;-71
2022/04/26 13:42:27;;;;;;;8.70;1.47;;;;;;;21.70;100.00;63119.69;5112131;28;20209;-72
2022/04/26 13:44:54;;;;;;;5.60;2.30;;;;;;;21.72;100.00;63124.44;5111538;28;20378;-72
2022/04/26 13:47:21;;;;;;;6.97;2.40;;;;;;;21.88;100.00;63141.81;5111766;28;20191;-71
2022/04/26 13:49:48;;;;;;;6.97;1.70;;;;;;;21.80;100.00;63135.72;5111865;28;20203;-72
2022/04/26 13:52:15;;;;;;;9.67;1.80;;;;;;;20.73;100.00;63017.81;5111767;28;20195;-71
2022/04/26 13:54:43;;;;;;;5.33;1.90;;;;;;;20.38;100.00;62977.94;5111586;28;20584;-73
2022/04/26 13:57:11;;;;;;;10.97;2.30;;;;;;;20.37;100.00;62982.03;5111842;28;20245;-72
2022/04/26 13:59:38;;;;;;;2.93;1.70;;;;;;;20.00;100.00;62939.94;5111640;28;20248;-76
2022/04/26 14:02:05;;;;;;;4.07;1.87;;;;;;;19.99;100.00;62933.16;5111632;28;20191;-72
2022/04/26 14:04:33;;;;;;;5.80;1.70;;;;;;;19.69;100.00;62911.06;5111634;28;20198;-72
2022/04/26 14:07:01;;;;;;;4.30;1.47;;;;;;;19.09;100.00;62841.59;5111517;28;20227;-72
2022/04/26 14:09:28;;;;;;;4.90;1.50;;;;;;;19.18;100.00;62857.03;5111494;28;20202;-72
2022/04/26 14:12:02;;;;;;;9.63;1.87;;;;;;;19.76;100.00;62914.00;5111665;28;20661;-72
2022/04/26 14:22:44;;;;;;;24.33;2.40;;;;;;;20.06;100.00;62948.50;5111711;28;20294;-72
2022/04/26 14:25:12;;;;;;;10.20;2.10;;;;;;;19.99;100.00;62940.91;5111487;28;20219;-72
2022/04/26 14:27:44;;;;;;;10.00;2.00;;;;;;;19.82;100.00;62919.97;5111645;28;20240;-72
2022/04/26 14:30:13;;;;;;;8.33;2.30;;;;;;;19.82;100.00;62919.97;5111640;28;20298;-73
2022/04/26 14:32:40;;;;;;;6.93;1.77;;;;;;;19.72;100.00;62909.69;5111674;28;20227;-72
2022/04/26 14:35:09;;;;;;;8.00;1.70;;;;;;;19.60;100.00;62896.19;5111686;28;20203;-73
2022/04/26 14:37:35;;;;;;;7.90;2.00;;;;;;;19.51;100.00;62887.00;5111456;28;20195;-72
2022/04/26 14:40:03;;;;;;;10.37;1.90;;;;;;;19.46;100.00;62881.59;5111373;28;20196;-73
2022/04/26 14:42:30;;;;;;;8.80;2.20;;;;;;;19.32;100.00;62867.00;5111348;28;20674;-72
2022/04/26 14:44:58;;;;;;;9.27;2.17;;;;;;;19.40;100.00;62877.16;5111210;28;20244;-74
2022/04/26 14:47:27;;;;;;;7.70;1.90;;;;;;;19.36;100.00;62871.31;5111710;28;20282;-72
2022/04/26 14:49:54;;;;;;;10.57;2.40;;;;;;;19.25;100.00;62862.03;5111468;28;20404;-72
2022/04/26 14:52:22;;;;;;;6.80;2.17;;;;;;;19.30;100.00;62869.44;5111306;28;20205;-72
2022/04/26 14:54:49;;;;;;;4.40;1.97;;;;;;;18.54;100.00;62778.13;5111246;28;20210;-72
2022/04/26 14:57:18;;;;;;;7.67;1.70;;;;;;;18.45;100.00;62770.47;5113012;28;20249;-73
2022/04/26 14:59:46;;;;;;;7.07;1.60;;;;;;;17.94;100.00;62717.97;5115115;28;20221;-73
2022/04/26 15:02:16;;;;;;;12.90;2.27;;;;;;;17.81;100.00;62706.53;5114806;28;20733;-72
2022/04/26 15:04:45;;;;;;;5.63;1.80;;;;;;;17.65;100.00;62690.34;5114960;28;20198;-72
2022/04/26 15:07:12;;;;;;;6.77;1.70;;;;;;;17.59;100.00;62681.28;5114907;28;20573;-74
2022/04/26 15:09:45;;;;;;;7.43;2.00;;;;;;;17.14;100.00;62632.75;5114855;28;20248;-71
2022/04/26 15:17:44;;;;;;;3.30;1.50;;;;;;;17.81;100.00;62711.69;5114803;28;20267;-74
2022/04/26 15:20:12;;;;;;;7.00;2.00;;;;;;;18.22;100.00;62748.19;5114129;28;20292;-72
2022/04/26 15:22:39;;;;;;;4.30;2.30;;;;;;;18.60;100.00;62789.22;5114603;28;20260;-73
2022/04/26 15:25:09;;;;;;;3.03;1.70;;;;;;;18.96;100.00;62828.09;5114318;28;20195;-74
2022/04/26 15:27:36;;;;;;;7.90;1.57;;;;;;;19.36;100.00;62871.31;5114798;28;20201;-74
2022/04/26 15:30:05;;;;;;;2.83;1.33;;;;;;;19.60;100.00;62896.19;5114286;28;20569;-73
2022/04/26 15:32:32;;;;;;;3.77;1.40;;;;;;;19.84;100.00;62922.13;5114512;28;20283;-72
2022/04/26 15:35:01;;;;;;;1.60;1.30;;;;;;;19.57;100.00;62898.66;5114155;28;20941;-72
2022/04/26 15:37:30;;;;;;;4.20;1.57;;;;;;;19.66;100.00;62902.69;5114732;28;20195;-74
2022/04/26 15:39:58;;;;;;;3.10;1.50;;;;;;;19.03;100.00;62835.66;5114067;28;20213;-73
2022/04/26 15:42:26;;;;;;;1.40;1.30;;;;;;;19.28;100.00;62867.84;5114245;28;20758;-73
2022/04/26 15:44:53;;;;;;;1.93;1.30;;;;;;;19.16;100.00;62852.28;5114002;28;20205;-72
2022/04/26 15:47:20;;;;;;;1.63;1.13;;;;;;;18.66;100.00;62793.13;5113595;28;20751;-74
2022/04/26 15:49:46;;;;;;;2.03;1.23;;;;;;;18.38;100.00;62765.47;5113757;28;20203;-73